Time;durP1;ratioP1;P1;durP2;ratioP2;P2;SDS_P1;SDS_P2;PMS_P1;PMS_P2;Temp;Humidity;BMP_temperature;BMP_pressure;BME280_temperature;BME280_humidity;BME280_pressure;Samples;Min_cycle;Max_cycle;Signal;HPM_P1;HPM_P2
2021/06/02 00:02:03;;;;;;;5.20;2.40;;;;;;;;;;5033315;28;20545;-74
2021/06/02 00:05:07;;;;;;;3.33;2.60;;;;;;;;;;5024354;28;20629;-75
2021/06/02 00:08:12;;;;;;;3.73;2.73;;;;;;;;;;5043452;28;20196;-74
2021/06/02 00:11:17;;;;;;;4.70;2.53;;;;;;;;;;5055550;28;20509;-74
2021/06/02 00:14:23;;;;;;;3.60;2.70;;;;;;;;;;5034270;28;20392;-74
2021/06/02 00:17:27;;;;;;;3.30;2.60;;;;;;;;;;5037341;28;20644;-74
2021/06/02 00:20:31;;;;;;;4.53;2.50;;;;;;;;;;5042958;28;20184;-74
2021/06/02 00:23:36;;;;;;;5.30;2.50;;;;;;;;;;5054823;28;20539;-74
2021/06/02 00:26:41;;;;;;;4.30;2.23;;;;;;;;;;5044642;28;20228;-74
2021/06/02 00:29:45;;;;;;;5.57;2.77;;;;;;;;;;5042622;28;20192;-74
2021/06/02 00:32:50;;;;;;;3.70;2.40;;;;;;;;;;5042589;28;20575;-74
2021/06/02 00:35:54;;;;;;;3.57;2.57;;;;;;;;;;5055136;28;20192;-74
2021/06/02 00:39:06;;;;;;;4.97;2.83;;;;;;;;;;5029407;28;20205;-74
2021/06/02 00:42:11;;;;;;;4.97;3.00;;;;;;;;;;5042737;28;20192;-74
2021/06/02 00:45:16;;;;;;;5.13;3.03;;;;;;;;;;5044248;28;20180;-74
2021/06/02 00:48:20;;;;;;;3.43;2.37;;;;;;;;;;5050077;28;20192;-74
2021/06/02 00:51:25;;;;;;;3.00;2.53;;;;;;;;;;5054792;28;20180;-74
2021/06/02 00:54:31;;;;;;;5.20;2.80;;;;;;;;;;5042468;28;20686;-73
2021/06/02 00:57:36;;;;;;;4.37;2.47;;;;;;;;;;5045456;28;20188;-74
2021/06/02 01:00:40;;;;;;;3.17;2.60;;;;;;;;;;5054550;28;20203;-74
2021/06/02 01:03:45;;;;;;;6.10;2.53;;;;;;;;;;5054484;28;20211;-74
2021/06/02 01:06:50;;;;;;;6.13;2.97;;;;;;;;;;5045292;28;20193;-74
2021/06/02 01:09:58;;;;;;;3.87;2.30;;;;;;;;;;5034578;28;20177;-74
2021/06/02 01:13:06;;;;;;;4.93;2.77;;;;;;;;;;5053869;28;20232;-74
2021/06/02 01:16:11;;;;;;;4.33;2.40;;;;;;;;;;5028356;28;20525;-74
2021/06/02 01:19:20;;;;;;;3.17;2.87;;;;;;;;;;5039452;28;20200;-74
2021/06/02 01:22:27;;;;;;;6.57;2.60;;;;;;;;;;5030386;28;20185;-74
2021/06/02 01:25:35;;;;;;;4.43;2.80;;;;;;;;;;5054009;28;20184;-74
2021/06/02 01:28:39;;;;;;;3.47;2.40;;;;;;;;;;5014210;28;20201;-74
2021/06/02 01:32:02;;;;;;;3.37;2.60;;;;;;;;;;5053707;28;20199;-74
2021/06/02 01:35:16;;;;;;;4.53;2.50;;;;;;;;;;5053551;28;20196;-74
2021/06/02 01:38:51;;;;;;;3.23;2.50;;;;;;;;;;5034347;28;20185;-74
2021/06/02 01:42:20;;;;;;;3.40;2.73;;;;;;;;;;5028652;28;20188;-75
2021/06/02 01:45:51;;;;;;;2.63;2.43;;;;;;;;;;5048252;28;20188;-74
2021/06/02 01:49:33;;;;;;;4.67;2.93;;;;;;;;;;5025116;28;20200;-75
2021/06/02 01:53:05;;;;;;;4.50;2.70;;;;;;;;;;5042413;28;20200;-75
2021/06/02 01:56:36;;;;;;;4.83;3.07;;;;;;;;;;5016798;28;20192;-74
2021/06/02 02:00:23;;;;;;;5.27;3.23;;;;;;;;;;5033790;28;20190;-74
2021/06/02 02:03:27;;;;;;;4.20;2.83;;;;;;;;;;5033441;28;20212;-74
2021/06/02 02:07:03;;;;;;;5.97;3.03;;;;;;;;;;5022343;28;20197;-75
2021/06/02 02:10:29;;;;;;;4.27;2.83;;;;;;;;;;5032281;28;20189;-78
2021/06/02 02:14:11;;;;;;;4.77;3.20;;;;;;;;;;5035674;28;20232;-76
2021/06/02 02:17:50;;;;;;;4.80;2.90;;;;;;;;;;5035260;28;20196;-75
2021/06/02 02:21:18;;;;;;;6.27;3.27;;;;;;;;;;5020571;28;20181;-76
2021/06/02 02:24:48;;;;;;;4.77;3.20;;;;;;;;;;5018768;28;20220;-77
2021/06/02 02:28:31;;;;;;;5.93;3.23;;;;;;;;;;5025422;28;20180;-76
2021/06/02 02:32:13;;;;;;;3.70;3.07;;;;;;;;;;4992681;28;20197;-77
2021/06/02 02:35:33;;;;;;;3.90;2.80;;;;;;;;;;5009973;28;20197;-77
2021/06/02 02:39:00;;;;;;;3.67;3.10;;;;;;;;;;5032231;28;20632;-77
2021/06/02 02:42:21;;;;;;;4.50;3.03;;;;;;;;;;5014773;28;20202;-77
2021/06/02 02:45:30;;;;;;;8.47;3.33;;;;;;;;;;4991155;28;20182;-76
2021/06/02 02:48:50;;;;;;;4.80;3.40;;;;;;;;;;5032184;28;20201;-75
2021/06/02 02:52:48;;;;;;;4.10;3.10;;;;;;;;;;5045814;28;20191;-76
2021/06/02 02:56:02;;;;;;;5.30;3.60;;;;;;;;;;4976060;28;20187;-75
2021/06/02 02:59:39;;;;;;;5.47;4.10;;;;;;;;;;5053292;28;20181;-75
2021/06/02 03:02:52;;;;;;;4.80;3.40;;;;;;;;;;5020460;28;20213;-75
2021/06/02 03:06:08;;;;;;;3.77;3.20;;;;;;;;;;5024666;28;20189;-75
2021/06/02 03:09:28;;;;;;;91.00;8.40;;;;;;;;;;5013638;28;20186;-75
2021/06/02 03:12:44;;;;;;;52.77;7.30;;;;;;;;;;5036754;28;20208;-75
2021/06/02 03:15:51;;;;;;;14.13;4.50;;;;;;;;;;5053299;28;20504;-75
2021/06/02 03:19:08;;;;;;;5.23;3.60;;;;;;;;;;5053174;28;20204;-75
2021/06/02 03:22:26;;;;;;;8.60;3.63;;;;;;;;;;5017715;28;20197;-76
2021/06/02 03:25:50;;;;;;;5.07;3.30;;;;;;;;;;5040926;28;20572;-76
2021/06/02 03:29:02;;;;;;;4.97;3.33;;;;;;;;;;5040815;28;20176;-76
2021/06/02 03:32:21;;;;;;;4.77;3.50;;;;;;;;;;5051966;28;20195;-76
2021/06/02 03:35:46;;;;;;;5.17;3.60;;;;;;;;;;5031470;28;20185;-76
2021/06/02 03:39:16;;;;;;;6.27;3.70;;;;;;;;;;5020964;28;20177;-75
2021/06/02 03:42:48;;;;;;;5.47;3.30;;;;;;;;;;5051853;28;20188;-76
2021/06/02 03:46:05;;;;;;;7.80;4.03;;;;;;;;;;5040631;28;20185;-76
2021/06/02 03:49:22;;;;;;;4.17;3.40;;;;;;;;;;5032614;28;20193;-75
2021/06/02 03:52:43;;;;;;;7.80;3.80;;;;;;;;;;5027012;28;20197;-75
2021/06/02 03:55:53;;;;;;;6.33;4.43;;;;;;;;;;5032688;28;20181;-76
2021/06/02 03:59:28;;;;;;;4.50;3.70;;;;;;;;;;5009866;28;20173;-76
2021/06/02 04:02:55;;;;;;;6.03;4.17;;;;;;;;;;5012598;28;20205;-75
2021/06/02 04:06:02;;;;;;;4.80;3.40;;;;;;;;;;5012008;28;20182;-76
2021/06/02 04:09:13;;;;;;;6.57;4.00;;;;;;;;;;5010733;28;20205;-76
2021/06/02 04:12:39;;;;;;;4.77;3.30;;;;;;;;;;5050544;28;20203;-76
2021/06/02 04:15:48;;;;;;;3.60;3.30;;;;;;;;;;5011963;28;20185;-76
2021/06/02 04:18:54;;;;;;;6.10;3.80;;;;;;;;;;5012803;28;20194;-76
2021/06/02 04:22:04;;;;;;;4.83;3.53;;;;;;;;;;5030644;28;20208;-76
2021/06/02 04:25:10;;;;;;;6.90;3.50;;;;;;;;;;5032101;28;20169;-76
2021/06/02 04:28:15;;;;;;;4.30;3.40;;;;;;;;;;5031953;28;20192;-76
2021/06/02 04:31:20;;;;;;;4.60;3.67;;;;;;;;;;5053367;28;20180;-74
2021/06/02 04:34:27;;;;;;;6.50;3.80;;;;;;;;;;5054936;28;20228;-74
2021/06/02 04:37:34;;;;;;;4.80;3.33;;;;;;;;;;5055191;28;20543;-74
2021/06/02 04:40:40;;;;;;;6.10;3.57;;;;;;;;;;5040300;28;20188;-75
2021/06/02 04:43:45;;;;;;;6.37;2.90;;;;;;;;;;5053373;28;20219;-74
2021/06/02 04:46:50;;;;;;;7.87;3.50;;;;;;;;;;5042676;28;20184;-75
2021/06/02 04:50:22;;;;;;;4.70;3.30;;;;;;;;;;5034276;28;20549;-75
2021/06/02 04:53:58;;;;;;;4.90;2.80;;;;;;;;;;5034472;28;20220;-74
2021/06/02 04:57:46;;;;;;;4.40;3.30;;;;;;;;;;5025433;28;20184;-75
2021/06/02 05:01:20;;;;;;;6.73;3.53;;;;;;;;;;5052136;28;20546;-74
2021/06/02 05:04:33;;;;;;;4.57;3.73;;;;;;;;;;5035164;28;20220;-75
2021/06/02 05:08:15;;;;;;;12.20;4.10;;;;;;;;;;5040820;28;20180;-75
2021/06/02 05:11:52;;;;;;;7.33;4.40;;;;;;;;;;5026489;28;20667;-75
2021/06/02 05:15:25;;;;;;;11.93;5.17;;;;;;;;;;5035975;28;20233;-74
2021/06/02 05:18:50;;;;;;;5.90;4.53;;;;;;;;;;5034386;28;20184;-75
2021/06/02 05:22:15;;;;;;;6.47;5.40;;;;;;;;;;5035214;28;20209;-74
2021/06/02 05:25:19;;;;;;;8.13;5.07;;;;;;;;;;5027974;28;20185;-74
2021/06/02 05:28:51;;;;;;;8.40;4.70;;;;;;;;;;5027610;28;20200;-75
2021/06/02 05:32:22;;;;;;;7.33;4.97;;;;;;;;;;5040461;28;20188;-74
2021/06/02 05:35:32;;;;;;;9.77;4.80;;;;;;;;;;5021540;28;20648;-75
2021/06/02 05:39:06;;;;;;;8.53;4.20;;;;;;;;;;5037338;28;20188;-74
2021/06/02 05:42:20;;;;;;;6.63;3.77;;;;;;;;;;5039244;28;20192;-75
2021/06/02 05:45:49;;;;;;;4.33;3.10;;;;;;;;;;5035043;28;20188;-76
2021/06/02 05:49:14;;;;;;;3.93;3.30;;;;;;;;;;5026895;28;20204;-75
2021/06/02 05:52:42;;;;;;;29.17;5.57;;;;;;;;;;5041502;28;20184;-74
2021/06/02 05:56:24;;;;;;;8.73;3.40;;;;;;;;;;5041167;28;20176;-74
2021/06/02 06:00:00;;;;;;;5.03;3.57;;;;;;;;;;5010676;28;20193;-73
2021/06/02 06:03:19;;;;;;;4.43;2.93;;;;;;;;;;5033822;28;20216;-73
2021/06/02 06:06:49;;;;;;;3.70;2.60;;;;;;;;;;5033235;28;20192;-76
2021/06/02 06:10:28;;;;;;;4.30;2.60;;;;;;;;;;5017303;28;20200;-74
2021/06/02 06:14:05;;;;;;;4.87;2.43;;;;;;;;;;5021400;28;20232;-74
2021/06/02 06:17:31;;;;;;;4.83;2.70;;;;;;;;;;5021530;28;20180;-75
2021/06/02 06:21:00;;;;;;;5.10;2.63;;;;;;;;;;5013817;28;20550;-73
2021/06/02 06:24:14;;;;;;;4.23;2.70;;;;;;;;;;5013400;28;20209;-73
2021/06/02 06:27:25;;;;;;;3.87;2.70;;;;;;;;;;5001817;28;20185;-72
2021/06/02 06:30:34;;;;;;;6.20;2.57;;;;;;;;;;5029341;28;20197;-73
2021/06/02 06:33:40;;;;;;;4.10;2.50;;;;;;;;;;5033035;28;20220;-72
2021/06/02 06:36:48;;;;;;;4.57;2.37;;;;;;;;;;5034330;28;20628;-74
2021/06/02 06:39:59;;;;;;;5.63;2.53;;;;;;;;;;5042896;28;20196;-74
2021/06/02 06:43:06;;;;;;;2.73;2.13;;;;;;;;;;5032785;28;20212;-74
2021/06/02 06:46:11;;;;;;;32.67;3.40;;;;;;;;;;5001390;28;20178;-73
2021/06/02 06:49:16;;;;;;;8.70;2.30;;;;;;;;;;5062668;22;20227;-85
2021/06/02 06:52:25;;;;;;;5.80;2.67;;;;;;;;;;5051517;28;20681;-87
2021/06/02 06:55:30;;;;;;;3.87;2.53;;;;;;;;;;5065792;28;20203;-84
2021/06/02 06:58:34;;;;;;;3.60;2.60;;;;;;;;;;5052361;28;20195;-84
2021/06/02 07:01:38;;;;;;;2.87;2.50;;;;;;;;;;5031507;28;20180;-83
2021/06/02 07:04:44;;;;;;;3.13;2.00;;;;;;;;;;5062215;28;20175;-84
2021/06/02 07:07:49;;;;;;;2.27;1.97;;;;;;;;;;5038924;28;20191;-84
2021/06/02 07:10:53;;;;;;;3.20;2.10;;;;;;;;;;5039542;28;20223;-86
2021/06/02 07:13:58;;;;;;;12.53;5.33;;;;;;;;;;5034794;28;20219;-87
2021/06/02 07:17:05;;;;;;;14.83;2.90;;;;;;;;;;5044233;28;20207;-87
2021/06/02 07:20:10;;;;;;;6.17;2.60;;;;;;;;;;5038282;28;20554;-87
2021/06/02 07:23:16;;;;;;;5.63;2.53;;;;;;;;;;5049906;28;20195;-87
2021/06/02 07:26:20;;;;;;;5.00;2.20;;;;;;;;;;5046882;28;20188;-87
2021/06/02 07:29:25;;;;;;;3.60;2.20;;;;;;;;;;5063454;28;20210;-87
2021/06/02 07:32:29;;;;;;;7.07;2.33;;;;;;;;;;5074295;28;20179;-87
2021/06/02 17:30:37;;;;;;;4.63;2.13;;;;;;;;;;5040139;28;20640;-85
